createdAt,value
2018-03-06T00:01:15.003Z,21.27
2018-03-06T00:03:43.315Z,22.63
2018-03-06T00:06:10.894Z,21.20
2018-03-06T00:08:38.466Z,24.50
2018-03-06T00:11:06.268Z,21.10
2018-03-06T00:13:33.914Z,23.70
2018-03-06T00:16:01.453Z,23.37
2018-03-06T00:18:29.821Z,21.73
2018-03-06T00:20:57.356Z,22.33
2018-03-06T00:23:24.868Z,18.60
2018-03-06T00:25:53.170Z,20.63
2018-03-06T00:28:21.473Z,22.07
2018-03-06T00:30:49.035Z,19.33
2018-03-06T00:33:17.409Z,20.80
2018-03-06T00:35:44.932Z,21.43
2018-03-06T00:38:12.473Z,22.20
2018-03-06T00:40:40.846Z,21.57
2018-03-06T00:43:08.417Z,19.77
2018-03-06T00:45:35.966Z,21.70
2018-03-06T00:48:03.542Z,18.90
2018-03-06T00:50:31.101Z,19.43
2018-03-06T00:52:58.650Z,21.37
2018-03-06T00:55:26.222Z,22.33
2018-03-06T00:57:53.777Z,18.93
2018-03-06T01:00:21.309Z,19.77
2018-03-06T01:02:48.894Z,19.10
2018-03-06T01:05:17.206Z,20.53
2018-03-06T01:07:45.510Z,19.87
2018-03-06T01:10:13.074Z,20.00
2018-03-06T01:12:40.611Z,21.27
2018-03-06T01:15:08.161Z,20.73
2018-03-06T01:17:36.118Z,20.20
2018-03-06T01:20:03.640Z,21.00
2018-03-06T01:22:31.972Z,20.13
2018-03-06T01:24:59.519Z,19.63
2018-03-06T01:27:27.078Z,21.07
2018-03-06T01:29:55.426Z,20.27
2018-03-06T01:32:22.983Z,20.50
2018-03-06T01:34:50.526Z,21.87
2018-03-06T01:37:18.090Z,19.83
2018-03-06T01:39:46.438Z,20.37
2018-03-06T01:42:13.995Z,19.27
2018-03-06T01:44:41.530Z,18.47
2018-03-06T01:47:09.862Z,19.87
2018-03-06T01:49:37.446Z,19.43
2018-03-06T01:52:04.967Z,18.03
2018-03-06T01:54:32.624Z,21.43
2018-03-06T01:57:00.938Z,20.73
2018-03-06T01:59:28.501Z,21.13
2018-03-06T02:01:56.020Z,21.70
2018-03-06T02:04:23.594Z,23.33
2018-03-06T02:06:51.152Z,23.63
2018-03-06T02:09:18.747Z,23.60
2018-03-06T02:11:46.294Z,19.77
2018-03-06T02:14:13.908Z,25.33
2018-03-06T02:16:41.434Z,25.17
2018-03-06T02:19:09.029Z,23.43
2018-03-06T02:21:37.369Z,23.57
2018-03-06T02:24:04.916Z,23.87
2018-03-06T02:26:33.245Z,25.63
2018-03-06T02:29:00.819Z,24.73
2018-03-06T02:31:28.341Z,25.77
2018-03-06T02:33:55.890Z,26.13
2018-03-06T02:36:23.442Z,23.83
2018-03-06T02:38:51.034Z,26.27
2018-03-06T02:41:18.641Z,27.17
2018-03-06T02:43:46.169Z,26.40
2018-03-06T02:46:13.715Z,25.60
2018-03-06T02:48:41.262Z,25.33
2018-03-06T02:51:09.630Z,26.23
2018-03-06T02:53:37.173Z,25.70
2018-03-06T02:56:04.733Z,25.13
2018-03-06T02:58:32.321Z,26.77
2018-03-06T03:00:59.872Z,27.07
2018-03-06T03:03:27.405Z,26.80
2018-03-06T03:05:55.723Z,23.37
2018-03-06T03:08:23.258Z,24.53
2018-03-06T03:10:51.573Z,26.70
2018-03-06T03:13:19.098Z,24.97
2018-03-06T03:15:46.643Z,25.27
2018-03-06T03:18:14.179Z,26.13
2018-03-06T03:20:41.758Z,27.40
2018-03-06T03:23:09.302Z,27.57
2018-03-06T03:25:36.846Z,26.00
2018-03-06T03:28:04.428Z,24.53
2018-03-06T03:30:32.012Z,25.13
2018-03-06T03:32:59.549Z,25.17
2018-03-06T03:35:27.081Z,22.67
2018-03-06T03:37:54.640Z,25.97
2018-03-06T03:40:22.920Z,24.07
2018-03-06T03:42:51.232Z,25.30
2018-03-06T03:45:18.852Z,26.87
2018-03-06T03:47:46.393Z,25.00
2018-03-06T03:50:13.945Z,25.07
2018-03-06T03:52:42.245Z,27.07
2018-03-06T03:55:09.782Z,26.87
2018-03-06T03:57:37.344Z,27.73
2018-03-06T04:00:04.889Z,27.10
2018-03-06T04:02:32.451Z,24.17
2018-03-06T04:04:59.961Z,25.37
2018-03-06T04:07:27.557Z,28.17
2018-03-06T04:09:55.914Z,25.50
2018-03-06T04:12:23.494Z,29.50
2018-03-06T04:14:51.033Z,24.50
2018-03-06T04:17:18.633Z,24.30
2018-03-06T04:19:46.141Z,25.07
2018-03-06T04:22:13.706Z,24.77
2018-03-06T04:24:42.005Z,27.30
2018-03-06T04:27:10.373Z,26.57
2018-03-06T04:29:38.685Z,24.83
2018-03-06T04:32:06.244Z,24.87
2018-03-06T04:34:34.558Z,26.77
2018-03-06T04:37:02.105Z,26.23
2018-03-06T04:39:30.429Z,24.63
2018-03-06T04:41:57.998Z,26.07
2018-03-06T04:44:25.546Z,27.30
2018-03-06T04:46:53.089Z,24.40
2018-03-06T04:49:20.614Z,26.50
2018-03-06T04:51:48.190Z,24.63
2018-03-06T04:54:15.733Z,27.33
2018-03-06T04:56:43.357Z,27.57
2018-03-06T04:59:10.880Z,25.07
2018-03-06T05:01:38.439Z,24.50
2018-03-06T05:04:06.780Z,25.60
2018-03-06T05:06:34.328Z,24.93
2018-03-06T05:09:01.865Z,28.80
2018-03-06T05:11:30.200Z,26.17
2018-03-06T05:13:57.746Z,25.37
2018-03-06T05:16:25.297Z,25.50
2018-03-06T05:18:53.640Z,26.60
2018-03-06T05:21:21.153Z,25.60
2018-03-06T05:23:48.689Z,27.67
2018-03-06T05:26:16.225Z,25.57
2018-03-06T05:28:43.746Z,26.53
2018-03-06T05:31:11.275Z,24.90
2018-03-06T05:33:38.826Z,24.23
2018-03-06T05:36:06.385Z,26.23
2018-03-06T05:38:34.745Z,27.17
2018-03-06T05:41:02.323Z,25.03
2018-03-06T05:43:33.509Z,21.00
2018-03-06T05:46:01.830Z,24.43
2018-03-06T05:48:29.466Z,26.13
2018-03-06T05:50:57.767Z,25.40
2018-03-06T05:53:25.531Z,25.40
2018-03-06T05:55:53.056Z,24.80
2018-03-06T05:58:23.258Z,23.80
2018-03-06T06:00:50.792Z,22.73
2018-03-06T06:03:18.337Z,24.23
2018-03-06T06:05:45.877Z,24.67
2018-03-06T06:08:13.410Z,23.33
2018-03-06T06:10:40.975Z,22.17
2018-03-06T06:13:08.533Z,23.13
2018-03-06T06:15:36.102Z,26.97
2018-03-06T06:18:03.647Z,26.23
2018-03-06T06:20:31.184Z,24.63
2018-03-06T06:22:59.498Z,23.73
2018-03-06T06:25:27.050Z,25.17
2018-03-06T06:27:55.349Z,23.07
2018-03-06T06:30:22.932Z,26.00
2018-03-06T06:32:50.538Z,24.40
2018-03-06T06:35:18.097Z,23.47
2018-03-06T06:37:45.707Z,25.57
2018-03-06T06:40:14.013Z,24.63
2018-03-06T06:42:42.376Z,24.30
2018-03-06T06:45:09.941Z,24.10
2018-03-06T06:47:37.474Z,23.90
2018-03-06T06:50:05.001Z,23.00
2018-03-06T06:52:32.950Z,22.63
2018-03-06T06:55:00.491Z,25.70
2018-03-06T06:57:28.063Z,24.37
2018-03-06T06:59:55.594Z,24.90
2018-03-06T07:02:23.205Z,21.33
2018-03-06T07:04:50.796Z,24.20
2018-03-06T07:07:18.420Z,23.73
2018-03-06T07:09:47.925Z,24.47
2018-03-06T07:12:15.480Z,24.97
2018-03-06T07:14:43.205Z,23.53
2018-03-06T07:17:11.498Z,24.30
2018-03-06T07:19:39.810Z,23.93
2018-03-06T07:22:07.349Z,25.97
2018-03-06T07:24:35.692Z,25.33
2018-03-06T07:27:03.251Z,22.83
2018-03-06T07:29:30.808Z,25.47
2018-03-06T07:31:58.414Z,24.47
2018-03-06T07:34:26.239Z,24.73
2018-03-06T07:36:54.689Z,22.30
2018-03-06T07:39:23.170Z,23.93
2018-03-06T07:41:50.703Z,22.80
2018-03-06T07:44:18.250Z,23.43
2018-03-06T07:46:45.791Z,24.37
2018-03-06T07:49:13.342Z,21.63
2018-03-06T07:51:40.870Z,25.23
2018-03-06T07:54:08.460Z,22.30
2018-03-06T07:56:35.966Z,22.43
2018-03-06T07:59:03.500Z,24.37
2018-03-06T08:01:31.224Z,21.27
2018-03-06T08:03:58.750Z,21.07
2018-03-06T08:06:26.277Z,23.83
2018-03-06T08:08:53.821Z,23.90
2018-03-06T08:11:21.357Z,24.33
2018-03-06T08:13:48.937Z,22.47
2018-03-06T08:16:16.478Z,22.23
2018-03-06T08:18:44.798Z,23.23
2018-03-06T08:21:12.326Z,22.17
2018-03-06T08:23:39.862Z,21.67
2018-03-06T08:26:07.394Z,21.10
2018-03-06T08:28:34.958Z,23.83
2018-03-06T08:31:02.537Z,21.33
2018-03-06T08:33:30.856Z,22.87
2018-03-06T08:35:58.377Z,23.17
2018-03-06T08:38:25.942Z,21.37
2018-03-06T08:40:56.858Z,22.40
2018-03-06T08:43:24.421Z,22.50
2018-03-06T08:45:51.953Z,23.27
2018-03-06T08:48:19.494Z,21.93
2018-03-06T08:50:47.025Z,23.87
2018-03-06T08:53:14.611Z,22.47
2018-03-06T08:55:42.984Z,22.30
2018-03-06T08:58:10.537Z,21.87
2018-03-06T09:00:38.855Z,23.57
2018-03-06T09:03:06.386Z,23.77
2018-03-06T09:05:33.885Z,23.77
2018-03-06T09:08:01.437Z,24.07
2018-03-06T09:10:29.733Z,27.60
2018-03-06T09:12:58.046Z,22.53
2018-03-06T09:15:25.573Z,24.07
2018-03-06T09:17:53.082Z,22.47
2018-03-06T09:20:20.594Z,22.87
2018-03-06T09:22:48.138Z,23.20
2018-03-06T09:25:15.670Z,22.10
2018-03-06T09:27:43.973Z,23.93
2018-03-06T09:30:12.250Z,23.13
2018-03-06T09:32:40.518Z,22.20
2018-03-06T09:35:08.041Z,23.07
2018-03-06T09:37:35.583Z,23.40
2018-03-06T09:40:03.921Z,24.33
2018-03-06T09:42:31.458Z,24.67
2018-03-06T09:44:58.992Z,25.23
2018-03-06T09:47:26.528Z,25.87
2018-03-06T09:49:54.061Z,26.77
2018-03-06T09:52:22.421Z,24.50
2018-03-06T09:54:49.935Z,28.10
2018-03-06T09:57:17.457Z,27.90
2018-03-06T09:59:45.006Z,26.97
2018-03-06T10:02:12.519Z,26.10
2018-03-06T10:04:40.049Z,26.07
2018-03-06T10:07:07.626Z,24.77
2018-03-06T10:09:35.180Z,28.40
2018-03-06T10:12:02.689Z,26.37
2018-03-06T10:14:30.230Z,26.23
2018-03-06T10:16:57.780Z,23.37
2018-03-06T10:19:25.310Z,24.53
2018-03-06T10:21:52.852Z,25.53
2018-03-06T10:24:20.381Z,26.13
2018-03-06T10:26:47.917Z,25.27
2018-03-06T10:29:15.453Z,28.33
2018-03-06T10:31:43.161Z,28.60
2018-03-06T10:34:10.681Z,25.53
2018-03-06T10:36:38.271Z,27.37
2018-03-06T10:39:05.801Z,25.50
2018-03-06T10:41:34.093Z,26.33
2018-03-06T10:44:02.383Z,27.10
2018-03-06T10:46:29.902Z,25.27
2018-03-06T10:48:57.425Z,20.93
2018-03-06T10:51:25.718Z,28.67
2018-03-06T10:53:54.006Z,27.00
2018-03-06T10:56:22.311Z,26.60
2018-03-06T10:58:49.815Z,27.80
2018-03-06T11:01:23.738Z,27.93
2018-03-06T11:03:51.304Z,27.00
2018-03-06T11:06:18.837Z,26.30
2018-03-06T11:08:46.346Z,27.83
2018-03-06T11:11:13.877Z,27.50
2018-03-06T11:13:42.161Z,28.80
2018-03-06T11:16:10.454Z,26.60
2018-03-06T11:18:38.725Z,26.70
2018-03-06T11:21:07.038Z,27.17
2018-03-06T11:23:34.570Z,27.33
2018-03-06T11:26:02.114Z,26.67
2018-03-06T11:28:29.650Z,25.13
2018-03-06T11:30:57.187Z,24.87
2018-03-06T11:33:24.774Z,27.93
2018-03-06T11:35:53.070Z,27.80
2018-03-06T11:38:20.608Z,27.53
2018-03-06T11:40:48.145Z,26.57
2018-03-06T11:43:15.673Z,24.73
2018-03-06T11:45:43.982Z,27.93
2018-03-06T11:48:11.521Z,26.90
2018-03-06T11:50:39.061Z,27.27
2018-03-06T11:53:06.670Z,25.63
2018-03-06T11:55:34.209Z,22.43
2018-03-06T11:58:01.741Z,25.40
2018-03-06T12:00:29.277Z,24.77
2018-03-06T12:02:56.842Z,23.37
2018-03-06T12:05:24.365Z,25.33
2018-03-06T12:07:51.894Z,26.83
2018-03-06T12:10:19.441Z,30.27
2018-03-06T12:12:46.973Z,28.10
2018-03-06T12:15:14.521Z,26.57
2018-03-06T12:17:42.966Z,26.10
2018-03-06T12:20:10.485Z,28.00
2018-03-06T12:22:38.786Z,25.10
2018-03-06T12:25:07.076Z,26.40
2018-03-06T12:27:34.647Z,25.17
2018-03-06T12:30:02.171Z,26.27
2018-03-06T12:32:29.743Z,25.87
2018-03-06T12:34:57.278Z,26.63
2018-03-06T12:37:24.809Z,26.47
2018-03-06T12:39:53.147Z,29.40
2018-03-06T12:42:20.743Z,26.43
2018-03-06T12:44:48.322Z,27.40
2018-03-06T12:47:15.918Z,26.50
2018-03-06T12:49:44.246Z,26.47
2018-03-06T12:52:11.810Z,25.87
2018-03-06T12:54:39.384Z,25.67
2018-03-06T12:57:06.937Z,22.53
2018-03-06T12:59:34.473Z,19.77
2018-03-06T13:02:02.067Z,28.60
2018-03-06T13:04:30.390Z,25.30
2018-03-06T13:06:57.950Z,24.07
2018-03-06T13:09:25.643Z,25.33
2018-03-06T13:11:53.230Z,24.10
2018-03-06T13:14:20.786Z,27.83
2018-03-06T13:16:48.359Z,24.57
2018-03-06T13:19:15.903Z,27.20
2018-03-06T13:21:44.213Z,24.93
2018-03-06T13:24:11.744Z,27.37
2018-03-06T13:26:39.267Z,26.90
2018-03-06T13:29:06.799Z,26.63
2018-03-06T13:31:35.094Z,27.80
2018-03-06T13:34:03.455Z,26.27
2018-03-06T13:36:30.929Z,30.03
2018-03-06T13:38:58.465Z,26.97
2018-03-06T13:41:25.997Z,28.83
2018-03-06T13:43:54.345Z,26.63
2018-03-06T13:46:21.884Z,25.83
2018-03-06T13:51:40.961Z,29.00
2018-03-06T13:54:09.301Z,25.17
2018-03-06T13:56:36.827Z,28.00
2018-03-06T13:59:05.088Z,25.77
2018-03-06T14:01:32.680Z,25.17
2018-03-06T14:04:00.978Z,26.40
2018-03-06T14:06:29.292Z,26.63
2018-03-06T14:08:56.808Z,26.73
2018-03-06T14:11:24.349Z,22.90
2018-03-06T14:13:51.872Z,26.77
2018-03-06T14:16:20.186Z,26.10
2018-03-06T14:18:47.829Z,26.40
2018-03-06T14:21:15.380Z,25.03
2018-03-06T14:23:42.896Z,25.67
2018-03-06T14:26:10.393Z,25.73
2018-03-06T14:28:37.930Z,25.33
2018-03-06T14:31:06.230Z,26.03
2018-03-06T14:33:33.769Z,25.80
2018-03-06T14:36:01.450Z,25.37
2018-03-06T14:38:29.836Z,24.47
2018-03-06T14:40:58.185Z,26.40
2018-03-06T14:43:25.884Z,25.80
2018-03-06T14:45:53.397Z,26.83
2018-03-06T14:48:20.945Z,25.93
2018-03-06T14:50:48.495Z,26.53
2018-03-06T14:53:16.814Z,26.73
2018-03-06T14:55:45.119Z,28.47
2018-03-06T14:58:12.724Z,26.50
2018-03-06T15:00:40.253Z,26.70
2018-03-06T15:03:08.543Z,24.50
2018-03-06T15:05:36.068Z,25.17
2018-03-06T15:08:03.726Z,26.47
2018-03-06T15:10:31.342Z,26.40
2018-03-06T15:12:59.645Z,24.63
2018-03-06T15:15:27.917Z,26.00
2018-03-06T15:17:55.460Z,26.33
2018-03-06T15:20:22.948Z,25.77
2018-03-06T15:22:50.569Z,26.40
2018-03-06T15:25:18.069Z,25.63
2018-03-06T15:27:45.644Z,27.83
2018-03-06T15:30:13.175Z,25.30
2018-03-06T15:32:40.715Z,27.97
2018-03-06T15:35:09.065Z,25.73
2018-03-06T15:37:38.288Z,24.90
2018-03-06T15:40:06.589Z,27.00
2018-03-06T15:42:34.152Z,23.90
2018-03-06T15:45:01.681Z,25.60
2018-03-06T15:47:29.218Z,26.10
2018-03-06T15:49:57.510Z,24.80
2018-03-06T15:52:25.898Z,25.00
2018-03-06T15:54:54.239Z,24.57
2018-03-06T15:57:21.825Z,26.13
2018-03-06T15:59:49.327Z,25.10
2018-03-06T16:02:17.154Z,28.87
2018-03-06T16:04:45.074Z,27.13
2018-03-06T16:07:12.766Z,26.63
2018-03-06T16:09:40.568Z,26.50
2018-03-06T16:12:08.174Z,26.83
2018-03-06T16:14:35.718Z,27.53
2018-03-06T16:17:03.251Z,25.40
2018-03-06T16:19:30.790Z,24.80
2018-03-06T16:21:58.318Z,27.70
2018-03-06T16:24:26.604Z,29.23
2018-03-06T16:26:54.904Z,27.03
2018-03-06T16:29:22.442Z,26.20
2018-03-06T16:31:49.991Z,29.63
2018-03-06T16:34:17.532Z,29.57
2018-03-06T16:36:45.024Z,30.90
2018-03-06T16:39:12.548Z,31.30
2018-03-06T16:41:40.062Z,31.30
2018-03-06T16:44:07.598Z,30.20
2018-03-06T16:46:35.909Z,42.90
2018-03-06T16:49:03.531Z,29.57
2018-03-06T16:51:31.161Z,30.93
2018-03-06T16:53:58.714Z,28.07
2018-03-06T16:56:26.222Z,28.50
2018-03-06T16:58:53.792Z,26.80
2018-03-06T17:01:21.333Z,29.13
2018-03-06T17:03:48.854Z,28.97
2018-03-06T17:06:16.352Z,27.70
2018-03-06T17:08:44.645Z,27.03
2018-03-06T17:11:12.916Z,31.30
2018-03-06T17:13:40.440Z,30.07
2018-03-06T17:16:07.955Z,30.67
2018-03-06T17:18:36.244Z,29.40
2018-03-06T17:21:03.770Z,29.60
2018-03-06T17:23:31.332Z,29.27
2018-03-06T17:25:58.866Z,27.17
2018-03-06T17:28:27.149Z,29.50
2018-03-06T17:30:54.712Z,27.70
2018-03-06T17:33:22.245Z,26.57
2018-03-06T17:35:50.127Z,30.60
2018-03-06T17:38:17.660Z,27.60
2018-03-06T17:40:45.958Z,28.80
2018-03-06T17:43:13.475Z,29.10
2018-03-06T17:45:41.038Z,30.40
2018-03-06T17:48:08.558Z,33.27
2018-03-06T17:50:36.877Z,34.47
2018-03-06T17:53:04.410Z,40.73
2018-03-06T17:55:32.728Z,41.83
2018-03-06T17:58:00.412Z,29.63
2018-03-06T18:00:27.992Z,24.23
2018-03-06T18:02:55.533Z,28.70
2018-03-06T18:05:23.218Z,25.27
2018-03-06T18:07:50.792Z,26.73
2018-03-06T18:10:18.388Z,27.03
2018-03-06T18:12:45.913Z,30.20
2018-03-06T18:15:14.188Z,29.20
2018-03-06T18:17:41.710Z,29.53
2018-03-06T18:20:09.229Z,29.40
2018-03-06T18:22:37.548Z,28.40
2018-03-06T18:25:05.185Z,29.00
2018-03-06T18:27:32.754Z,27.97
2018-03-06T18:30:00.377Z,27.83
2018-03-06T18:32:27.986Z,27.17
2018-03-06T18:34:55.744Z,28.07
2018-03-06T18:37:23.617Z,29.10
2018-03-06T18:39:51.877Z,29.47
2018-03-06T18:42:20.745Z,28.03
2018-03-06T18:44:48.529Z,28.60
2018-03-06T18:47:16.256Z,28.37
2018-03-06T18:50:05.633Z,28.83
2018-03-06T18:52:33.315Z,27.90
2018-03-06T18:55:01.262Z,27.83
2018-03-06T18:57:29.761Z,29.40
2018-03-06T19:03:09.097Z,29.33
2018-03-06T19:05:48.615Z,28.47
2018-03-06T19:08:18.209Z,22.97
2018-03-06T19:10:45.671Z,25.47
2018-03-06T19:13:13.139Z,27.53
2018-03-06T19:15:41.400Z,25.03
2018-03-06T19:18:08.875Z,29.97
2018-03-06T19:20:41.829Z,13.90
2018-03-06T19:23:09.357Z,26.73
2018-03-06T19:25:36.856Z,25.20
2018-03-06T19:28:04.421Z,25.73
2018-03-06T19:30:32.684Z,32.13
2018-03-06T19:33:00.261Z,24.17
2018-03-06T19:35:27.849Z,24.37
2018-03-06T19:37:55.387Z,25.47
2018-03-06T19:40:22.931Z,25.43
2018-03-06T19:42:50.528Z,21.27
2018-03-06T19:45:18.850Z,25.57
2018-03-06T19:47:47.170Z,27.23
2018-03-06T19:50:14.719Z,27.90
2018-03-06T19:52:42.275Z,29.93
2018-03-06T19:55:10.585Z,32.37
2018-03-06T19:57:38.463Z,28.87
2018-03-06T20:00:06.014Z,26.57
2018-03-06T20:02:34.474Z,31.67
2018-03-06T20:05:02.071Z,27.83
2018-03-06T20:07:30.389Z,27.40
2018-03-06T20:09:58.723Z,22.00
2018-03-06T20:12:26.328Z,33.20
2018-03-06T20:15:00.282Z,32.10
2018-03-06T20:17:28.975Z,23.00
2018-03-06T20:19:56.651Z,32.37
2018-03-06T20:22:24.941Z,34.67
2018-03-06T20:27:57.687Z,37.10
2018-03-06T20:30:30.915Z,33.70
2018-03-06T20:33:11.211Z,33.40
2018-03-06T20:35:38.801Z,36.93
2018-03-06T20:38:06.996Z,33.90
2018-03-06T20:40:35.232Z,34.90
2018-03-06T20:43:02.708Z,35.10
2018-03-06T20:45:36.000Z,33.27
2018-03-06T20:48:03.479Z,33.87
2018-03-06T20:50:30.960Z,36.73
2018-03-06T20:53:04.227Z,34.27
2018-03-06T20:55:31.700Z,36.47
2018-03-06T20:58:06.781Z,35.07
2018-03-06T21:00:34.356Z,32.53
2018-03-06T21:03:01.905Z,35.17
2018-03-06T21:05:29.372Z,35.30
2018-03-06T21:07:56.906Z,38.93
2018-03-06T21:10:25.347Z,36.23
2018-03-06T21:12:53.116Z,33.13
2018-03-06T21:15:20.624Z,36.67
2018-03-06T21:17:48.148Z,34.87
2018-03-06T21:20:15.818Z,36.43
2018-03-06T21:22:43.344Z,36.30
2018-03-06T21:25:10.887Z,34.60
2018-03-06T21:27:38.451Z,36.00
2018-03-06T21:30:06.000Z,34.40
2018-03-06T21:32:34.091Z,35.33
2018-03-06T21:35:01.626Z,35.53
2018-03-06T21:37:29.936Z,33.37
2018-03-06T21:39:57.478Z,34.73
2018-03-06T21:42:24.964Z,35.57
2018-03-06T21:44:53.269Z,36.03
2018-03-06T21:47:20.846Z,32.77
2018-03-06T21:49:50.296Z,33.80
2018-03-06T21:52:17.868Z,34.60
2018-03-06T21:54:46.321Z,36.87
2018-03-06T21:57:13.820Z,32.87
2018-03-06T21:59:42.139Z,31.77
2018-03-06T22:02:09.694Z,32.20
2018-03-06T22:04:37.203Z,31.97
2018-03-06T22:07:05.493Z,31.97
2018-03-06T22:09:33.790Z,33.60
2018-03-06T22:12:01.316Z,30.17
2018-03-06T22:14:28.844Z,32.17
2018-03-06T22:16:56.359Z,28.67
2018-03-06T22:19:23.900Z,30.43
2018-03-06T22:21:51.395Z,30.23
2018-03-06T22:24:18.911Z,31.03
2018-03-06T22:26:47.216Z,28.70
2018-03-06T22:29:14.732Z,32.27
2018-03-06T22:31:42.275Z,34.20
2018-03-06T22:34:09.814Z,32.40
2018-03-06T22:36:38.120Z,33.83
2018-03-06T22:39:05.617Z,33.47
2018-03-06T22:41:33.178Z,30.53
2018-03-06T22:44:00.704Z,31.33
2018-03-06T22:46:28.989Z,28.87
2018-03-06T22:48:57.292Z,27.67
2018-03-06T22:51:25.599Z,27.00
2018-03-06T22:53:53.112Z,28.20
2018-03-06T22:56:20.677Z,27.53
2018-03-06T22:58:48.213Z,30.97
2018-03-06T23:01:15.750Z,31.03
2018-03-06T23:03:43.273Z,24.60
2018-03-06T23:06:10.816Z,30.47
2018-03-06T23:08:39.092Z,31.20
2018-03-06T23:11:07.393Z,28.73
2018-03-06T23:13:35.740Z,30.37
2018-03-06T23:16:03.265Z,26.00
2018-03-06T23:18:30.867Z,27.50
2018-03-06T23:20:58.375Z,27.57
2018-03-06T23:23:25.900Z,28.07
2018-03-06T23:25:53.429Z,26.10
2018-03-06T23:28:21.728Z,28.33
2018-03-06T23:30:50.021Z,27.40
2018-03-06T23:33:18.327Z,26.83
2018-03-06T23:35:45.817Z,26.33
2018-03-06T23:38:13.340Z,25.33
2018-03-06T23:40:41.598Z,27.30
2018-03-06T23:43:09.139Z,28.17
2018-03-06T23:45:36.668Z,26.17
2018-03-06T23:48:04.977Z,27.60
2018-03-06T23:50:32.496Z,25.40
2018-03-06T23:53:00.037Z,25.90
2018-03-06T23:55:27.561Z,28.33
2018-03-06T23:57:55.856Z,21.90
